EW8836 Weather Reports


Display with metric or nautical units.
time (UTC)temp
F
wind
direction
speed
MPH
gust
MPH
rain 1hr
in
rain 24hr
in
rain mn
in
humidity
%
barometer
mb
20201027230205 53 205 5.0 13.0 0.00 0.03 0.00 86 1011.7
20201027224656 53 217 8.0 15.0 0.00 0.03 0.03 87 1011.5
20201027221800 52 252 5.0 12.0 0.01 0.03 0.03 91 1011.3
20201027220142 52 229 7.0 13.0 0.01 0.03 0.03 91 1011.5
20201027214802 53 256 6.0 12.0 0.01 0.03 0.03 90 1011.3
20201027213136 53 285 6.0 13.0 0.00 0.02 0.02 88 1011.5
20201027211742 54 257 7.0 14.0 0.00 0.02 0.02 85 1011.5
20201027210125 54 219 7.0 17.0 0.00 0.02 0.02 84 1011.3
20201027204640 54 221 8.0 16.0 0.00 0.02 0.02 84 1011.0
20201027203153 54 153 8.0 15.0 0.00 0.02 0.02 84 1011.1
20201027201635 54 273 7.0 16.0 0.00 0.02 0.02 85 1011.1
20201027200105 54 244 5.0 11.0 0.00 0.02 0.02 85 1011.0
20201027194644 54 242 7.0 17.0 0.00 0.02 0.02 84 1010.8
20201027193154 53 234 7.0 14.0 0.00 0.02 0.02 85 1010.6
20201027191657 53 236 5.0 15.0 0.00 0.02 0.02 85 1010.5
20201027190112 53 211 8.0 16.0 0.00 0.02 0.02 85 1010.6
20201027184718 53 210 7.0 16.0 0.00 0.02 0.02 86 1010.6
20201027183043 53 257 6.0 13.0 0.00 0.02 0.02 87 1010.5
20201027180214 52 197 7.0 17.0 0.00 0.02 0.02 89 1010.4
20201027173131 53 237 5.0 14.0 0.00 0.02 0.02 84 1010.0
20201027171708 53 155 6.0 15.0 0.00 0.02 0.02 84 1009.9
20201027170027 53 252 5.0 16.0 0.00 0.02 0.02 84 1010.0
20201027163140 53 244 4.0 11.0 0.00 0.03 0.02 85 1009.9
20201027161521 53 173 4.0 8.0 0.00 0.03 0.02 86 1010.0
20201027154601 54 226 4.0 10.0 0.00 0.03 0.02 83 1010.1
20201027153130 54 194 2.0 12.0 0.00 0.03 0.02 81 1010.0
20201027151612 55 93 2.0 11.0 0.00 0.03 0.02 80 1010.0
20201027150129 55 205 6.0 14.0 0.00 0.03 0.02 80 1009.9
20201027144515 55 249 3.0 12.0 0.00 0.03 0.02 81 1010.1
20201027141520 54 262 2.0 10.0 0.00 0.03 0.02 82 1010.3
20201027140141 54 278 4.0 13.0 0.00 0.03 0.02 81 1010.5
20201027133250 54 304 4.0 12.0 0.00 0.03 0.02 82 1010.7
20201027131634 53 91 4.0 9.0 0.00 0.03 0.02 82 1010.9
20201027130125 53 260 4.0 12.0 0.00 0.03 0.02 84 1011.1
20201027124632 52 280 2.0 11.0 0.01 0.03 0.02 88 1011.2
20201027123235 52 217 3.0 11.0 0.01 0.03 0.02 88 1011.3
20201027120132 52 213 4.0 11.0 0.02 0.03 0.02 88 1012.0
20201027113129 52 224 3.0 10.0 0.01 0.02 0.02 88 1012.4
20201027111638 52 213 5.0 10.0 0.01 0.02 0.01 86 1012.5
20201027104610 52 196 3.0 11.0 0.01 0.02 0.01 86 1012.6
20201027103145 52 125 6.0 11.0 0.01 0.02 0.01 84 1012.6
20201027101826 52 248 4.0 11.0 0.00 0.01 0.00 85 1012.5
20201027100147 51 266 5.0 12.0 0.00 0.01 0.00 85 1012.5
20201027091629 49 229 6.0 12.0 0.00 0.01 0.00 87 1012.3
20201027090125 49 229 3.0 9.0 0.00 0.01 0.00 88 1012.2
20201027084528 49 251 4.0 11.0 0.00 0.01 0.00 88 1012.5
20201027080151 47 208 2.0 9.0 0.00 0.01 0.00 90 1012.5
20201027071639 46 233 2.0 7.0 0.00 0.01 0.00 92 1012.2
20201027070339 45 228 2.0 6.0 0.00 0.01 0.00 93 1012.1
20201027063113 44 222 2.0 7.0 0.00 0.01 0.00 92 1012.0
20201027061514 44 206 2.0 6.0 0.00 0.01 0.00 92 1011.7
20201027060316 44 264 3.0 7.0 0.00 0.01 0.00 93 1011.8
20201027054742 44 231 1.0 5.0 0.00 0.02 0.00 93 1011.6
20201027053215 44 234 0.0 5.0 0.00 0.02 0.00 93 1011.7
20201027051719 44 244 0.0 3.0 0.00 0.02 0.00 93 1011.5
20201027050225 44 228 0.0 4.0 0.00 0.02 0.00 93 1011.4
20201027044749 45 236 0.0 5.0 0.00 0.02 0.00 93 1011.5
20201027043153 45 243 3.0 8.0 0.00 0.02 0.00 93 1011.4
20201027041647 44 252 3.0 6.0 0.00 0.02 0.00 93 1011.4
20201027040233 44 192 1.0 5.0 0.00 0.02 0.00 93 1011.3
20201027034843 44 233 2.0 6.0 0.00 0.02 0.00 94 1011.3
20201027033207 45 197 2.0 7.0 0.00 0.02 0.00 93 1011.1
20201027031612 45 245 4.0 8.0 0.00 0.02 0.00 93 1011.1
20201027030136 45 212 4.0 6.0 0.00 0.02 0.00 93 1011.1
20201027024630 45 219 3.0 7.0 0.00 0.02 0.00 93 1011.1
20201027023107 45 237 4.0 8.0 0.00 0.02 0.00 93 1011.2
20201027021553 44 237 4.0 7.0 0.00 0.02 0.00 94 1011.3
20201027020240 44 231 3.0 8.0 0.00 0.02 0.00 94 1011.4
20201027014640 44 237 2.0 7.0 0.00 0.02 0.00 94 1011.3
20201027013119 44 226 0.0 5.0 0.00 0.02 0.00 94 1011.2
20201027011613 44 224 1.0 6.0 0.00 0.02 0.00 93 1011.3
20201027010048 44 241 2.0 7.0 0.00 0.02 0.00 93 1011.4
20201027004705 44 257 4.0 8.0 0.00 0.02 0.00 93 1011.3
20201027003129 44 207 5.0 9.0 0.00 0.02 0.00 93 1011.3
20201027001649 44 240 3.0 8.0 0.00 0.02 0.00 93 1011.3
20201027000108 44 208 0.0 4.0 0.00 0.02 0.00 93 1011.4
20201026234549 44 225 2.0 6.0 0.00 0.02 0.00 93 1011.5
20201026233054 44 287 3.0 8.0 0.00 0.02 0.00 93 1011.4
20201026231605 44 247 3.0 8.0 0.00 0.02 0.00 92 1011.5